sensor_id;sensor_type;location;lat;lon;timestamp;P1;durP1;ratioP1;P2;durP2;ratioP2
64401;SDS011;50724;42.376;23.768;2023-03-11T00:01:58;8.70;;;3.72;;
64401;SDS011;50724;42.376;23.768;2023-03-11T00:04:58;8.70;;;3.30;;
64401;SDS011;50724;42.376;23.768;2023-03-11T00:07:59;6.07;;;3.40;;
64401;SDS011;50724;42.376;23.768;2023-03-11T00:11:00;7.78;;;3.28;;
64401;SDS011;50724;42.376;23.768;2023-03-11T00:14:08;7.05;;;3.85;;
64401;SDS011;50724;42.376;23.768;2023-03-11T00:17:17;7.72;;;3.50;;
64401;SDS011;50724;42.376;23.768;2023-03-11T00:20:19;7.78;;;3.88;;
64401;SDS011;50724;42.376;23.768;2023-03-11T00:23:27;7.72;;;3.40;;
64401;SDS011;50724;42.376;23.768;2023-03-11T00:26:28;6.60;;;3.15;;
64401;SDS011;50724;42.376;23.768;2023-03-11T00:29:28;6.20;;;3.15;;
64401;SDS011;50724;42.376;23.768;2023-03-11T00:32:29;8.02;;;3.92;;
64401;SDS011;50724;42.376;23.768;2023-03-11T00:35:30;8.02;;;3.65;;
64401;SDS011;50724;42.376;23.768;2023-03-11T00:38:32;7.90;;;3.78;;
64401;SDS011;50724;42.376;23.768;2023-03-11T00:41:33;8.48;;;3.58;;
64401;SDS011;50724;42.376;23.768;2023-03-11T00:44:34;9.38;;;4.05;;
64401;SDS011;50724;42.376;23.768;2023-03-11T00:47:34;7.40;;;3.85;;
64401;SDS011;50724;42.376;23.768;2023-03-11T00:50:35;7.35;;;3.30;;
64401;SDS011;50724;42.376;23.768;2023-03-11T00:53:36;8.35;;;3.35;;
64401;SDS011;50724;42.376;23.768;2023-03-11T00:56:36;7.50;;;3.67;;
64401;SDS011;50724;42.376;23.768;2023-03-11T00:59:37;6.93;;;3.72;;
64401;SDS011;50724;42.376;23.768;2023-03-11T01:02:38;11.67;;;3.90;;
64401;SDS011;50724;42.376;23.768;2023-03-11T01:05:39;5.15;;;3.03;;
64401;SDS011;50724;42.376;23.768;2023-03-11T01:08:39;7.47;;;3.58;;
64401;SDS011;50724;42.376;23.768;2023-03-11T01:11:40;5.38;;;2.70;;
64401;SDS011;50724;42.376;23.768;2023-03-11T01:14:40;4.32;;;2.10;;
64401;SDS011;50724;42.376;23.768;2023-03-11T01:17:41;5.10;;;2.45;;
64401;SDS011;50724;42.376;23.768;2023-03-11T01:20:41;4.80;;;2.20;;
64401;SDS011;50724;42.376;23.768;2023-03-11T01:23:42;4.90;;;2.00;;
64401;SDS011;50724;42.376;23.768;2023-03-11T01:26:43;5.20;;;2.03;;
64401;SDS011;50724;42.376;23.768;2023-03-11T01:29:44;4.50;;;1.58;;
64401;SDS011;50724;42.376;23.768;2023-03-11T01:32:44;6.63;;;1.67;;
64401;SDS011;50724;42.376;23.768;2023-03-11T01:35:45;2.92;;;1.20;;
64401;SDS011;50724;42.376;23.768;2023-03-11T01:38:45;3.17;;;1.50;;
64401;SDS011;50724;42.376;23.768;2023-03-11T01:41:46;2.13;;;1.00;;
64401;SDS011;50724;42.376;23.768;2023-03-11T01:44:46;2.13;;;0.98;;
64401;SDS011;50724;42.376;23.768;2023-03-11T01:47:46;1.63;;;0.90;;
64401;SDS011;50724;42.376;23.768;2023-03-11T01:50:48;1.27;;;0.90;;
64401;SDS011;50724;42.376;23.768;2023-03-11T01:53:50;0.90;;;0.63;;
64401;SDS011;50724;42.376;23.768;2023-03-11T01:56:51;0.63;;;0.55;;
64401;SDS011;50724;42.376;23.768;2023-03-11T01:59:55;0.57;;;0.50;;
64401;SDS011;50724;42.376;23.768;2023-03-11T02:02:57;0.88;;;0.70;;
64401;SDS011;50724;42.376;23.768;2023-03-11T02:06:02;0.80;;;0.60;;
64401;SDS011;50724;42.376;23.768;2023-03-11T02:09:05;0.52;;;0.50;;
64401;SDS011;50724;42.376;23.768;2023-03-11T02:12:06;1.30;;;0.60;;
64401;SDS011;50724;42.376;23.768;2023-03-11T02:15:10;1.08;;;0.57;;
64401;SDS011;50724;42.376;23.768;2023-03-11T02:18:12;0.68;;;0.60;;
64401;SDS011;50724;42.376;23.768;2023-03-11T02:21:21;2.60;;;0.57;;
64401;SDS011;50724;42.376;23.768;2023-03-11T02:27:53;3.88;;;2.72;;
64401;SDS011;50724;42.376;23.768;2023-03-11T02:30:54;4.35;;;1.63;;
64401;SDS011;50724;42.376;23.768;2023-03-11T02:33:56;6.90;;;2.30;;
64401;SDS011;50724;42.376;23.768;2023-03-11T02:41:00;6.47;;;2.50;;
64401;SDS011;50724;42.376;23.768;2023-03-11T02:43:49;5.78;;;2.28;;
64401;SDS011;50724;42.376;23.768;2023-03-11T02:46:50;4.05;;;2.10;;
64401;SDS011;50724;42.376;23.768;2023-03-11T02:49:52;1.83;;;0.90;;
64401;SDS011;50724;42.376;23.768;2023-03-11T02:52:55;0.93;;;0.75;;
64401;SDS011;50724;42.376;23.768;2023-03-11T02:55:55;1.17;;;0.32;;
64401;SDS011;50724;42.376;23.768;2023-03-11T02:58:56;0.77;;;0.60;;
64401;SDS011;50724;42.376;23.768;2023-03-11T03:01:56;0.47;;;0.20;;
64401;SDS011;50724;42.376;23.768;2023-03-11T03:04:56;2.13;;;0.43;;
64401;SDS011;50724;42.376;23.768;2023-03-11T03:07:57;0.63;;;0.30;;
64401;SDS011;50724;42.376;23.768;2023-03-11T03:10:58;0.40;;;0.40;;
64401;SDS011;50724;42.376;23.768;2023-03-11T03:13:59;0.40;;;0.40;;
64401;SDS011;50724;42.376;23.768;2023-03-11T03:16:59;0.93;;;0.47;;
64401;SDS011;50724;42.376;23.768;2023-03-11T03:20:00;0.83;;;0.40;;
64401;SDS011;50724;42.376;23.768;2023-03-11T03:23:00;0.55;;;0.38;;
64401;SDS011;50724;42.376;23.768;2023-03-11T03:26:01;0.98;;;0.50;;
64401;SDS011;50724;42.376;23.768;2023-03-11T03:29:01;0.32;;;0.32;;
64401;SDS011;50724;42.376;23.768;2023-03-11T03:32:02;0.55;;;0.40;;
64401;SDS011;50724;42.376;23.768;2023-03-11T03:35:03;0.30;;;0.20;;
64401;SDS011;50724;42.376;23.768;2023-03-11T03:38:04;0.63;;;0.40;;
64401;SDS011;50724;42.376;23.768;2023-03-11T03:41:04;0.50;;;0.40;;
64401;SDS011;50724;42.376;23.768;2023-03-11T03:44:05;1.00;;;0.50;;
64401;SDS011;50724;42.376;23.768;2023-03-11T03:47:06;0.73;;;0.40;;
64401;SDS011;50724;42.376;23.768;2023-03-11T03:50:07;0.52;;;0.32;;
64401;SDS011;50724;42.376;23.768;2023-03-11T03:53:10;1.90;;;0.50;;
64401;SDS011;50724;42.376;23.768;2023-03-11T03:56:12;0.70;;;0.43;;
64401;SDS011;50724;42.376;23.768;2023-03-11T03:59:17;1.20;;;0.50;;
64401;SDS011;50724;42.376;23.768;2023-03-11T04:02:17;0.43;;;0.40;;
64401;SDS011;50724;42.376;23.768;2023-03-11T04:05:18;0.57;;;0.30;;
64401;SDS011;50724;42.376;23.768;2023-03-11T04:08:18;0.73;;;0.40;;
64401;SDS011;50724;42.376;23.768;2023-03-11T04:11:19;0.80;;;0.40;;
64401;SDS011;50724;42.376;23.768;2023-03-11T04:14:21;0.38;;;0.30;;
64401;SDS011;50724;42.376;23.768;2023-03-11T04:17:21;0.50;;;0.47;;
64401;SDS011;50724;42.376;23.768;2023-03-11T04:20:22;1.10;;;0.40;;
64401;SDS011;50724;42.376;23.768;2023-03-11T04:23:22;0.63;;;0.32;;
64401;SDS011;50724;42.376;23.768;2023-03-11T04:26:23;1.95;;;0.63;;
64401;SDS011;50724;42.376;23.768;2023-03-11T04:29:24;0.32;;;0.32;;
64401;SDS011;50724;42.376;23.768;2023-03-11T04:32:24;1.05;;;0.60;;
64401;SDS011;50724;42.376;23.768;2023-03-11T04:35:25;0.70;;;0.50;;
64401;SDS011;50724;42.376;23.768;2023-03-11T04:38:25;0.73;;;0.50;;
64401;SDS011;50724;42.376;23.768;2023-03-11T04:41:26;0.52;;;0.43;;
64401;SDS011;50724;42.376;23.768;2023-03-11T04:44:26;0.50;;;0.50;;
64401;SDS011;50724;42.376;23.768;2023-03-11T04:47:27;1.95;;;0.50;;
64401;SDS011;50724;42.376;23.768;2023-03-11T04:50:27;1.40;;;0.77;;
64401;SDS011;50724;42.376;23.768;2023-03-11T04:53:28;1.58;;;0.60;;
64401;SDS011;50724;42.376;23.768;2023-03-11T04:56:28;1.25;;;0.50;;
64401;SDS011;50724;42.376;23.768;2023-03-11T04:59:29;0.82;;;0.50;;
64401;SDS011;50724;42.376;23.768;2023-03-11T05:02:29;0.45;;;0.43;;
64401;SDS011;50724;42.376;23.768;2023-03-11T05:05:30;2.43;;;0.60;;
64401;SDS011;50724;42.376;23.768;2023-03-11T05:08:30;3.30;;;0.77;;
64401;SDS011;50724;42.376;23.768;2023-03-11T05:11:31;0.60;;;0.60;;
64401;SDS011;50724;42.376;23.768;2023-03-11T05:14:31;2.10;;;0.65;;
64401;SDS011;50724;42.376;23.768;2023-03-11T05:17:31;0.70;;;0.50;;
64401;SDS011;50724;42.376;23.768;2023-03-11T05:20:32;0.93;;;0.70;;
64401;SDS011;50724;42.376;23.768;2023-03-11T05:23:32;1.38;;;0.63;;
64401;SDS011;50724;42.376;23.768;2023-03-11T05:26:33;1.60;;;0.80;;
64401;SDS011;50724;42.376;23.768;2023-03-11T05:29:33;0.60;;;0.60;;
64401;SDS011;50724;42.376;23.768;2023-03-11T05:32:34;2.08;;;0.95;;
64401;SDS011;50724;42.376;23.768;2023-03-11T05:35:34;1.00;;;0.65;;
64401;SDS011;50724;42.376;23.768;2023-03-11T05:38:35;1.35;;;0.70;;
64401;SDS011;50724;42.376;23.768;2023-03-11T05:41:44;3.60;;;0.80;;
64401;SDS011;50724;42.376;23.768;2023-03-11T05:44:45;1.02;;;0.73;;
64401;SDS011;50724;42.376;23.768;2023-03-11T05:47:45;1.67;;;0.90;;
64401;SDS011;50724;42.376;23.768;2023-03-11T05:50:46;2.70;;;0.80;;
64401;SDS011;50724;42.376;23.768;2023-03-11T05:53:46;1.33;;;0.85;;
64401;SDS011;50724;42.376;23.768;2023-03-11T05:56:48;1.90;;;0.50;;
64401;SDS011;50724;42.376;23.768;2023-03-11T05:59:48;0.52;;;0.50;;
64401;SDS011;50724;42.376;23.768;2023-03-11T06:02:57;0.47;;;0.47;;
64401;SDS011;50724;42.376;23.768;2023-03-11T06:08:58;0.83;;;0.47;;
64401;SDS011;50724;42.376;23.768;2023-03-11T06:11:59;3.20;;;0.70;;
64401;SDS011;50724;42.376;23.768;2023-03-11T06:14:59;0.88;;;0.60;;
64401;SDS011;50724;42.376;23.768;2023-03-11T06:17:59;1.70;;;0.60;;
64401;SDS011;50724;42.376;23.768;2023-03-11T06:21:00;0.40;;;0.40;;
64401;SDS011;50724;42.376;23.768;2023-03-11T06:24:02;0.75;;;0.50;;
64401;SDS011;50724;42.376;23.768;2023-03-11T06:27:03;0.82;;;0.57;;
64401;SDS011;50724;42.376;23.768;2023-03-11T06:30:04;1.15;;;0.70;;
64401;SDS011;50724;42.376;23.768;2023-03-11T06:33:04;1.05;;;0.60;;
64401;SDS011;50724;42.376;23.768;2023-03-11T06:36:05;2.40;;;0.60;;
64401;SDS011;50724;42.376;23.768;2023-03-11T06:39:06;0.60;;;0.60;;
64401;SDS011;50724;42.376;23.768;2023-03-11T06:42:09;0.75;;;0.45;;
64401;SDS011;50724;42.376;23.768;2023-03-11T06:45:10;0.77;;;0.50;;
64401;SDS011;50724;42.376;23.768;2023-03-11T06:48:10;1.48;;;0.73;;
64401;SDS011;50724;42.376;23.768;2023-03-11T06:51:11;0.88;;;0.55;;
64401;SDS011;50724;42.376;23.768;2023-03-11T06:54:12;1.75;;;0.75;;
64401;SDS011;50724;42.376;23.768;2023-03-11T06:57:12;0.50;;;0.50;;
64401;SDS011;50724;42.376;23.768;2023-03-11T07:00:13;1.27;;;0.60;;
64401;SDS011;50724;42.376;23.768;2023-03-11T07:03:15;1.15;;;0.60;;
64401;SDS011;50724;42.376;23.768;2023-03-11T07:06:16;0.90;;;0.50;;
64401;SDS011;50724;42.376;23.768;2023-03-11T07:09:21;0.65;;;0.50;;
64401;SDS011;50724;42.376;23.768;2023-03-11T07:12:24;0.60;;;0.60;;
64401;SDS011;50724;42.376;23.768;2023-03-11T07:15:24;2.53;;;0.53;;
64401;SDS011;50724;42.376;23.768;2023-03-11T07:18:24;0.43;;;0.40;;
64401;SDS011;50724;42.376;23.768;2023-03-11T07:21:25;0.88;;;0.52;;
64401;SDS011;50724;42.376;23.768;2023-03-11T07:24:27;0.65;;;0.50;;
64401;SDS011;50724;42.376;23.768;2023-03-11T07:27:27;0.70;;;0.60;;
64401;SDS011;50724;42.376;23.768;2023-03-11T07:30:28;1.45;;;0.30;;
64401;SDS011;50724;42.376;23.768;2023-03-11T07:33:28;0.40;;;0.40;;
64401;SDS011;50724;42.376;23.768;2023-03-11T07:36:29;0.40;;;0.40;;
64401;SDS011;50724;42.376;23.768;2023-03-11T07:39:30;1.25;;;0.60;;
64401;SDS011;50724;42.376;23.768;2023-03-11T07:42:30;1.10;;;0.47;;
64401;SDS011;50724;42.376;23.768;2023-03-11T07:45:32;1.20;;;0.65;;
64401;SDS011;50724;42.376;23.768;2023-03-11T07:48:33;0.63;;;0.50;;
64401;SDS011;50724;42.376;23.768;2023-03-11T07:51:36;0.40;;;0.30;;
64401;SDS011;50724;42.376;23.768;2023-03-11T07:54:37;0.63;;;0.60;;
64401;SDS011;50724;42.376;23.768;2023-03-11T07:57:38;1.10;;;0.90;;
64401;SDS011;50724;42.376;23.768;2023-03-11T08:00:38;1.23;;;0.60;;
64401;SDS011;50724;42.376;23.768;2023-03-11T08:03:38;1.42;;;0.50;;
64401;SDS011;50724;42.376;23.768;2023-03-11T08:06:40;1.27;;;0.60;;
64401;SDS011;50724;42.376;23.768;2023-03-11T08:09:42;0.77;;;0.50;;
64401;SDS011;50724;42.376;23.768;2023-03-11T08:12:42;2.03;;;0.65;;
64401;SDS011;50724;42.376;23.768;2023-03-11T08:15:43;6.13;;;0.80;;
64401;SDS011;50724;42.376;23.768;2023-03-11T08:18:44;0.77;;;0.50;;
64401;SDS011;50724;42.376;23.768;2023-03-11T08:21:45;0.93;;;0.60;;
64401;SDS011;50724;42.376;23.768;2023-03-11T08:24:49;4.07;;;0.80;;
64401;SDS011;50724;42.376;23.768;2023-03-11T08:27:50;1.52;;;0.65;;
64401;SDS011;50724;42.376;23.768;2023-03-11T08:30:51;1.05;;;0.55;;
64401;SDS011;50724;42.376;23.768;2023-03-11T08:33:53;1.23;;;0.90;;
64401;SDS011;50724;42.376;23.768;2023-03-11T08:36:55;1.65;;;0.75;;
64401;SDS011;50724;42.376;23.768;2023-03-11T08:39:55;2.15;;;0.93;;
64401;SDS011;50724;42.376;23.768;2023-03-11T08:42:56;2.03;;;0.70;;
64401;SDS011;50724;42.376;23.768;2023-03-11T08:45:58;1.35;;;0.93;;
64401;SDS011;50724;42.376;23.768;2023-03-11T08:48:59;2.05;;;0.88;;
64401;SDS011;50724;42.376;23.768;2023-03-11T08:52:00;3.05;;;1.02;;
64401;SDS011;50724;42.376;23.768;2023-03-11T08:55:01;2.05;;;1.00;;
64401;SDS011;50724;42.376;23.768;2023-03-11T08:58:03;2.45;;;0.90;;
64401;SDS011;50724;42.376;23.768;2023-03-11T09:01:04;2.05;;;1.02;;
64401;SDS011;50724;42.376;23.768;2023-03-11T09:04:08;1.77;;;0.95;;
64401;SDS011;50724;42.376;23.768;2023-03-11T09:07:10;0.95;;;0.88;;
64401;SDS011;50724;42.376;23.768;2023-03-11T09:10:12;1.35;;;0.80;;
64401;SDS011;50724;42.376;23.768;2023-03-11T09:13:15;1.08;;;0.80;;
64401;SDS011;50724;42.376;23.768;2023-03-11T09:16:16;1.37;;;0.80;;
64401;SDS011;50724;42.376;23.768;2023-03-11T09:19:19;1.42;;;0.73;;
64401;SDS011;50724;42.376;23.768;2023-03-11T09:22:20;1.35;;;0.90;;
64401;SDS011;50724;42.376;23.768;2023-03-11T09:25:20;2.33;;;0.90;;
64401;SDS011;50724;42.376;23.768;2023-03-11T09:28:21;2.10;;;1.02;;
64401;SDS011;50724;42.376;23.768;2023-03-11T09:31:21;1.00;;;0.90;;
64401;SDS011;50724;42.376;23.768;2023-03-11T09:34:22;4.18;;;1.10;;
64401;SDS011;50724;42.376;23.768;2023-03-11T09:37:22;1.88;;;1.00;;
64401;SDS011;50724;42.376;23.768;2023-03-11T09:40:23;2.85;;;0.90;;
64401;SDS011;50724;42.376;23.768;2023-03-11T09:43:30;1.00;;;0.75;;
64401;SDS011;50724;42.376;23.768;2023-03-11T09:50:19;2.08;;;1.05;;
64401;SDS011;50724;42.376;23.768;2023-03-11T09:56:36;1.33;;;1.10;;
64401;SDS011;50724;42.376;23.768;2023-03-11T09:59:38;1.42;;;0.90;;
64401;SDS011;50724;42.376;23.768;2023-03-11T10:02:41;1.23;;;0.73;;
64401;SDS011;50724;42.376;23.768;2023-03-11T10:05:42;3.30;;;0.80;;
64401;SDS011;50724;42.376;23.768;2023-03-11T10:08:45;1.88;;;0.80;;
64401;SDS011;50724;42.376;23.768;2023-03-11T10:15:29;0.80;;;0.70;;
64401;SDS011;50724;42.376;23.768;2023-03-11T10:18:47;1.40;;;0.70;;
64401;SDS011;50724;42.376;23.768;2023-03-11T10:21:58;1.23;;;0.68;;
64401;SDS011;50724;42.376;23.768;2023-03-11T10:25:13;1.75;;;0.90;;
64401;SDS011;50724;42.376;23.768;2023-03-11T10:28:16;1.45;;;0.70;;
64401;SDS011;50724;42.376;23.768;2023-03-11T10:31:29;2.25;;;0.70;;
64401;SDS011;50724;42.376;23.768;2023-03-11T10:34:33;2.83;;;0.90;;
64401;SDS011;50724;42.376;23.768;2023-03-11T10:37:39;2.75;;;1.13;;
64401;SDS011;50724;42.376;23.768;2023-03-11T10:40:46;5.00;;;1.40;;
64401;SDS011;50724;42.376;23.768;2023-03-11T10:43:51;3.10;;;1.40;;
64401;SDS011;50724;42.376;23.768;2023-03-11T10:46:56;1.42;;;0.80;;
64401;SDS011;50724;42.376;23.768;2023-03-11T10:49:57;3.93;;;1.10;;
64401;SDS011;50724;42.376;23.768;2023-03-11T10:53:04;2.83;;;0.80;;
64401;SDS011;50724;42.376;23.768;2023-03-11T10:56:09;3.03;;;1.40;;
64401;SDS011;50724;42.376;23.768;2023-03-11T11:02:37;3.53;;;0.60;;
64401;SDS011;50724;42.376;23.768;2023-03-11T11:05:39;1.10;;;0.65;;
64401;SDS011;50724;42.376;23.768;2023-03-11T11:08:40;1.60;;;0.55;;
64401;SDS011;50724;42.376;23.768;2023-03-11T11:11:40;0.43;;;0.43;;
64401;SDS011;50724;42.376;23.768;2023-03-11T11:17:52;3.05;;;0.77;;
64401;SDS011;50724;42.376;23.768;2023-03-11T11:27:30;1.70;;;0.80;;
64401;SDS011;50724;42.376;23.768;2023-03-11T11:30:31;1.10;;;0.70;;
64401;SDS011;50724;42.376;23.768;2023-03-11T11:33:38;1.65;;;0.65;;
64401;SDS011;50724;42.376;23.768;2023-03-11T11:37:00;1.85;;;0.75;;
64401;SDS011;50724;42.376;23.768;2023-03-11T11:40:05;1.30;;;0.60;;
64401;SDS011;50724;42.376;23.768;2023-03-11T11:43:17;1.42;;;0.70;;
64401;SDS011;50724;42.376;23.768;2023-03-11T11:49:42;1.05;;;0.70;;
64401;SDS011;50724;42.376;23.768;2023-03-11T11:53:14;1.90;;;0.60;;
64401;SDS011;50724;42.376;23.768;2023-03-11T11:56:18;2.47;;;1.00;;
64401;SDS011;50724;42.376;23.768;2023-03-11T11:59:19;3.78;;;1.05;;
64401;SDS011;50724;42.376;23.768;2023-03-11T12:06:08;3.55;;;1.10;;
64401;SDS011;50724;42.376;23.768;2023-03-11T12:09:31;3.78;;;0.82;;
64401;SDS011;50724;42.376;23.768;2023-03-11T12:16:02;2.78;;;0.80;;
64401;SDS011;50724;42.376;23.768;2023-03-11T12:19:16;3.10;;;0.88;;
64401;SDS011;50724;42.376;23.768;2023-03-11T12:26:03;2.88;;;1.00;;
64401;SDS011;50724;42.376;23.768;2023-03-11T12:29:24;4.43;;;0.82;;
64401;SDS011;50724;42.376;23.768;2023-03-11T12:33:05;1.88;;;0.93;;
64401;SDS011;50724;42.376;23.768;2023-03-11T12:36:23;1.27;;;0.63;;
64401;SDS011;50724;42.376;23.768;2023-03-11T12:39:36;1.13;;;0.80;;
64401;SDS011;50724;42.376;23.768;2023-03-11T12:42:45;1.92;;;0.75;;
64401;SDS011;50724;42.376;23.768;2023-03-11T12:45:47;1.48;;;0.88;;
64401;SDS011;50724;42.376;23.768;2023-03-11T12:49:08;4.40;;;0.88;;
64401;SDS011;50724;42.376;23.768;2023-03-11T12:58:42;1.48;;;0.75;;
64401;SDS011;50724;42.376;23.768;2023-03-11T13:08:52;1.10;;;0.85;;
64401;SDS011;50724;42.376;23.768;2023-03-11T13:11:54;3.05;;;0.70;;
64401;SDS011;50724;42.376;23.768;2023-03-11T13:18:21;3.05;;;0.80;;
64401;SDS011;50724;42.376;23.768;2023-03-11T13:27:35;4.33;;;1.00;;
64401;SDS011;50724;42.376;23.768;2023-03-11T13:30:42;1.55;;;0.90;;
64401;SDS011;50724;42.376;23.768;2023-03-11T13:33:51;3.97;;;0.82;;
64401;SDS011;50724;42.376;23.768;2023-03-11T13:43:32;1.63;;;0.88;;
64401;SDS011;50724;42.376;23.768;2023-03-11T13:46:35;1.15;;;0.80;;
64401;SDS011;50724;42.376;23.768;2023-03-11T13:53:09;1.65;;;0.70;;
64401;SDS011;50724;42.376;23.768;2023-03-11T13:56:17;2.47;;;0.90;;
64401;SDS011;50724;42.376;23.768;2023-03-11T14:02:33;2.15;;;0.65;;
64401;SDS011;50724;42.376;23.768;2023-03-11T14:05:35;2.17;;;0.80;;
64401;SDS011;50724;42.376;23.768;2023-03-11T14:08:39;2.80;;;0.75;;
64401;SDS011;50724;42.376;23.768;2023-03-11T14:11:40;1.35;;;0.75;;
64401;SDS011;50724;42.376;23.768;2023-03-11T14:14:57;2.22;;;0.82;;
64401;SDS011;50724;42.376;23.768;2023-03-11T14:21:46;1.42;;;0.60;;
64401;SDS011;50724;42.376;23.768;2023-03-11T14:24:49;2.60;;;0.73;;
64401;SDS011;50724;42.376;23.768;2023-03-11T14:27:51;2.83;;;0.88;;
64401;SDS011;50724;42.376;23.768;2023-03-11T14:30:55;1.77;;;0.90;;
64401;SDS011;50724;42.376;23.768;2023-03-11T14:34:02;3.30;;;1.02;;
64401;SDS011;50724;42.376;23.768;2023-03-11T14:37:23;4.38;;;0.98;;
64401;SDS011;50724;42.376;23.768;2023-03-11T14:40:31;3.35;;;0.90;;
64401;SDS011;50724;42.376;23.768;2023-03-11T14:43:37;3.70;;;1.00;;
64401;SDS011;50724;42.376;23.768;2023-03-11T14:46:40;1.08;;;0.50;;
64401;SDS011;50724;42.376;23.768;2023-03-11T14:49:42;3.17;;;1.05;;
64401;SDS011;50724;42.376;23.768;2023-03-11T14:52:47;1.52;;;0.75;;
64401;SDS011;50724;42.376;23.768;2023-03-11T14:59:04;3.13;;;1.10;;
64401;SDS011;50724;42.376;23.768;2023-03-11T15:05:51;2.83;;;1.02;;
64401;SDS011;50724;42.376;23.768;2023-03-11T15:08:56;4.05;;;1.20;;
64401;SDS011;50724;42.376;23.768;2023-03-11T15:12:03;2.17;;;1.08;;
64401;SDS011;50724;42.376;23.768;2023-03-11T15:15:18;2.20;;;1.00;;
64401;SDS011;50724;42.376;23.768;2023-03-11T15:18:22;2.10;;;0.73;;
64401;SDS011;50724;42.376;23.768;2023-03-11T15:21:24;1.67;;;0.95;;
64401;SDS011;50724;42.376;23.768;2023-03-11T15:24:26;4.05;;;1.00;;
64401;SDS011;50724;42.376;23.768;2023-03-11T15:27:33;2.70;;;0.98;;
64401;SDS011;50724;42.376;23.768;2023-03-11T15:30:36;10.95;;;1.70;;
64401;SDS011;50724;42.376;23.768;2023-03-11T15:33:36;2.72;;;1.35;;
64401;SDS011;50724;42.376;23.768;2023-03-11T15:36:39;1.55;;;0.80;;
64401;SDS011;50724;42.376;23.768;2023-03-11T15:39:44;4.18;;;1.08;;
64401;SDS011;50724;42.376;23.768;2023-03-11T15:42:46;2.67;;;1.27;;
64401;SDS011;50724;42.376;23.768;2023-03-11T15:45:48;2.10;;;1.10;;
64401;SDS011;50724;42.376;23.768;2023-03-11T15:48:52;2.88;;;0.88;;
64401;SDS011;50724;42.376;23.768;2023-03-11T15:51:56;2.93;;;0.93;;
64401;SDS011;50724;42.376;23.768;2023-03-11T15:55:00;2.55;;;1.02;;
64401;SDS011;50724;42.376;23.768;2023-03-11T15:58:07;2.40;;;1.27;;
64401;SDS011;50724;42.376;23.768;2023-03-11T16:01:08;3.40;;;1.10;;
64401;SDS011;50724;42.376;23.768;2023-03-11T16:04:18;2.90;;;0.93;;
64401;SDS011;50724;42.376;23.768;2023-03-11T16:07:19;2.70;;;1.00;;
64401;SDS011;50724;42.376;23.768;2023-03-11T16:10:20;1.37;;;0.70;;
64401;SDS011;50724;42.376;23.768;2023-03-11T16:13:24;2.53;;;1.20;;
64401;SDS011;50724;42.376;23.768;2023-03-11T16:16:25;3.45;;;1.60;;
64401;SDS011;50724;42.376;23.768;2023-03-11T16:19:25;2.33;;;1.10;;
64401;SDS011;50724;42.376;23.768;2023-03-11T16:22:35;1.93;;;1.10;;
64401;SDS011;50724;42.376;23.768;2023-03-11T16:25:37;1.45;;;0.75;;
64401;SDS011;50724;42.376;23.768;2023-03-11T16:28:38;2.42;;;1.00;;
64401;SDS011;50724;42.376;23.768;2023-03-11T16:31:40;1.70;;;0.80;;
64401;SDS011;50724;42.376;23.768;2023-03-11T16:34:40;1.42;;;0.70;;
64401;SDS011;50724;42.376;23.768;2023-03-11T16:37:41;1.50;;;0.83;;
64401;SDS011;50724;42.376;23.768;2023-03-11T16:40:42;1.73;;;0.90;;
64401;SDS011;50724;42.376;23.768;2023-03-11T16:43:42;2.23;;;0.90;;
64401;SDS011;50724;42.376;23.768;2023-03-11T16:46:43;2.50;;;0.98;;
64401;SDS011;50724;42.376;23.768;2023-03-11T16:49:44;2.15;;;0.90;;
64401;SDS011;50724;42.376;23.768;2023-03-11T16:52:44;4.00;;;1.60;;
64401;SDS011;50724;42.376;23.768;2023-03-11T16:55:44;3.07;;;1.70;;
64401;SDS011;50724;42.376;23.768;2023-03-11T16:58:45;3.45;;;1.52;;
64401;SDS011;50724;42.376;23.768;2023-03-11T17:01:48;2.53;;;1.10;;
64401;SDS011;50724;42.376;23.768;2023-03-11T17:04:48;2.97;;;1.23;;
64401;SDS011;50724;42.376;23.768;2023-03-11T17:07:53;2.58;;;1.15;;
64401;SDS011;50724;42.376;23.768;2023-03-11T17:10:56;3.17;;;1.08;;
64401;SDS011;50724;42.376;23.768;2023-03-11T17:13:56;2.95;;;1.08;;
64401;SDS011;50724;42.376;23.768;2023-03-11T17:16:57;3.25;;;1.70;;
64401;SDS011;50724;42.376;23.768;2023-03-11T17:19:58;1.98;;;1.05;;
64401;SDS011;50724;42.376;23.768;2023-03-11T17:22:59;3.40;;;1.00;;
64401;SDS011;50724;42.376;23.768;2023-03-11T17:26:00;2.10;;;1.02;;
64401;SDS011;50724;42.376;23.768;2023-03-11T17:29:09;2.92;;;1.30;;
64401;SDS011;50724;42.376;23.768;2023-03-11T17:32:10;2.63;;;1.00;;
64401;SDS011;50724;42.376;23.768;2023-03-11T17:38:13;2.87;;;1.10;;
64401;SDS011;50724;42.376;23.768;2023-03-11T17:41:14;2.70;;;1.07;;
64401;SDS011;50724;42.376;23.768;2023-03-11T17:44:15;5.22;;;1.20;;
64401;SDS011;50724;42.376;23.768;2023-03-11T17:47:16;4.32;;;1.27;;
64401;SDS011;50724;42.376;23.768;2023-03-11T17:50:18;2.53;;;1.48;;
64401;SDS011;50724;42.376;23.768;2023-03-11T17:53:21;2.40;;;1.42;;
64401;SDS011;50724;42.376;23.768;2023-03-11T17:56:22;2.72;;;1.50;;
64401;SDS011;50724;42.376;23.768;2023-03-11T17:59:23;1.83;;;1.13;;
64401;SDS011;50724;42.376;23.768;2023-03-11T18:02:23;2.80;;;1.70;;
64401;SDS011;50724;42.376;23.768;2023-03-11T18:05:23;3.15;;;1.60;;
64401;SDS011;50724;42.376;23.768;2023-03-11T18:08:24;1.37;;;0.97;;
64401;SDS011;50724;42.376;23.768;2023-03-11T18:11:25;1.10;;;0.90;;
64401;SDS011;50724;42.376;23.768;2023-03-11T18:14:26;1.70;;;1.20;;
64401;SDS011;50724;42.376;23.768;2023-03-11T18:17:27;2.70;;;1.20;;
64401;SDS011;50724;42.376;23.768;2023-03-11T18:20:37;2.13;;;1.00;;
64401;SDS011;50724;42.376;23.768;2023-03-11T18:23:38;1.58;;;0.80;;
64401;SDS011;50724;42.376;23.768;2023-03-11T18:26:39;3.80;;;0.98;;
64401;SDS011;50724;42.376;23.768;2023-03-11T18:29:47;1.27;;;0.80;;
64401;SDS011;50724;42.376;23.768;2023-03-11T18:32:48;3.13;;;0.93;;
64401;SDS011;50724;42.376;23.768;2023-03-11T18:35:48;1.65;;;0.95;;
64401;SDS011;50724;42.376;23.768;2023-03-11T18:38:50;2.03;;;1.25;;
64401;SDS011;50724;42.376;23.768;2023-03-11T18:41:51;2.03;;;0.95;;
64401;SDS011;50724;42.376;23.768;2023-03-11T18:44:52;1.37;;;0.80;;
64401;SDS011;50724;42.376;23.768;2023-03-11T18:47:52;1.10;;;0.53;;
64401;SDS011;50724;42.376;23.768;2023-03-11T18:50:53;2.10;;;0.95;;
64401;SDS011;50724;42.376;23.768;2023-03-11T18:53:54;2.25;;;0.95;;
64401;SDS011;50724;42.376;23.768;2023-03-11T18:56:55;2.53;;;1.30;;
64401;SDS011;50724;42.376;23.768;2023-03-11T18:59:55;2.63;;;1.30;;
64401;SDS011;50724;42.376;23.768;2023-03-11T19:02:56;3.20;;;0.97;;
64401;SDS011;50724;42.376;23.768;2023-03-11T19:05:56;1.73;;;1.00;;
64401;SDS011;50724;42.376;23.768;2023-03-11T19:08:57;2.22;;;1.10;;
64401;SDS011;50724;42.376;23.768;2023-03-11T19:11:57;2.53;;;1.20;;
64401;SDS011;50724;42.376;23.768;2023-03-11T19:14:58;2.70;;;1.00;;
64401;SDS011;50724;42.376;23.768;2023-03-11T19:17:58;4.93;;;0.80;;
64401;SDS011;50724;42.376;23.768;2023-03-11T19:21:00;2.45;;;1.20;;
64401;SDS011;50724;42.376;23.768;2023-03-11T19:24:01;2.75;;;1.13;;
64401;SDS011;50724;42.376;23.768;2023-03-11T19:27:02;4.25;;;1.00;;
64401;SDS011;50724;42.376;23.768;2023-03-11T19:30:02;2.95;;;1.33;;
64401;SDS011;50724;42.376;23.768;2023-03-11T19:33:03;2.63;;;1.05;;
64401;SDS011;50724;42.376;23.768;2023-03-11T19:36:04;2.53;;;1.10;;
64401;SDS011;50724;42.376;23.768;2023-03-11T19:39:06;1.50;;;0.75;;
64401;SDS011;50724;42.376;23.768;2023-03-11T19:42:07;1.58;;;1.00;;